createdAt,value
2019-02-09T00:00:39.495Z,996.40
2019-02-09T00:01:39.450Z,996.41
2019-02-09T00:02:39.471Z,996.36
2019-02-09T00:03:39.420Z,996.46
2019-02-09T00:04:39.409Z,996.46
2019-02-09T00:05:39.409Z,996.40
2019-02-09T00:06:39.387Z,996.44
2019-02-09T00:07:39.418Z,996.32
2019-02-09T00:08:39.367Z,996.17
2019-02-09T00:09:39.404Z,996.33
2019-02-09T00:10:39.344Z,996.37
2019-02-09T00:11:39.338Z,996.35
2019-02-09T00:12:39.322Z,996.27
2019-02-09T00:13:39.312Z,996.19
2019-02-09T00:14:39.297Z,996.08
2019-02-09T00:15:39.335Z,996.06
2019-02-09T00:16:39.277Z,996.02
2019-02-09T00:17:39.273Z,996.09
2019-02-09T00:18:39.252Z,996.10
2019-02-09T00:19:39.245Z,996.05
2019-02-09T00:20:39.246Z,996.11
2019-02-09T00:21:39.268Z,996.17
2019-02-09T00:22:39.213Z,996.24
2019-02-09T00:23:39.198Z,996.39
2019-02-09T00:24:39.193Z,996.38
2019-02-09T00:25:39.178Z,996.25
2019-02-09T00:26:39.165Z,996.23
2019-02-09T00:27:39.199Z,996.20
2019-02-09T00:28:39.147Z,996.15
2019-02-09T00:29:46.113Z,996.02
2019-02-09T00:30:40.121Z,996.07
2019-02-09T00:31:39.111Z,996.15
2019-02-09T00:32:39.139Z,996.14
2019-02-09T00:33:39.088Z,996.11
2019-02-09T00:34:39.106Z,996.00
2019-02-09T00:35:39.066Z,995.97
2019-02-09T00:36:39.067Z,996.01
2019-02-09T00:37:39.044Z,996.08
2019-02-09T00:38:39.078Z,995.93
2019-02-09T00:39:39.036Z,995.79
2019-02-09T00:40:39.011Z,995.92
2019-02-09T00:41:38.999Z,995.87
2019-02-09T00:42:38.991Z,995.87
2019-02-09T00:43:38.979Z,995.96
2019-02-09T00:44:39.012Z,995.93
2019-02-09T00:45:38.958Z,995.88
2019-02-09T00:46:38.944Z,995.89
2019-02-09T00:47:38.934Z,995.85
2019-02-09T00:48:38.923Z,995.85
2019-02-09T00:49:38.917Z,995.85
2019-02-09T00:50:38.947Z,995.80
2019-02-09T00:51:38.889Z,995.76
2019-02-09T00:52:38.879Z,995.88
2019-02-09T00:53:38.871Z,995.85
2019-02-09T00:54:38.896Z,995.68
2019-02-09T00:55:38.845Z,995.90
2019-02-09T00:56:38.843Z,995.71
2019-02-09T00:57:38.824Z,995.61
2019-02-09T00:58:38.812Z,995.60
2019-02-09T00:59:38.803Z,995.73
2019-02-09T01:00:38.841Z,995.44
2019-02-09T01:01:38.818Z,995.45
2019-02-09T01:02:38.768Z,995.63
2019-02-09T01:03:38.776Z,995.59
2019-02-09T01:04:38.745Z,995.64
2019-02-09T01:05:38.776Z,995.67
2019-02-09T01:06:38.730Z,995.72
2019-02-09T01:07:38.713Z,995.70
2019-02-09T01:08:38.705Z,995.46
2019-02-09T01:09:38.692Z,995.45
2019-02-09T01:10:38.679Z,995.32
2019-02-09T01:11:38.710Z,995.30
2019-02-09T01:12:38.672Z,995.55
2019-02-09T01:13:38.648Z,995.44
2019-02-09T01:14:38.642Z,995.59
2019-02-09T01:15:38.625Z,995.52
2019-02-09T01:16:38.616Z,995.53
2019-02-09T01:17:38.646Z,995.52
2019-02-09T01:18:38.591Z,995.50
2019-02-09T01:19:38.583Z,995.38
2019-02-09T01:20:38.570Z,995.41
2019-02-09T01:21:38.661Z,995.44
2019-02-09T01:22:38.549Z,995.22
2019-02-09T01:23:38.539Z,995.29
2019-02-09T01:24:38.525Z,995.21
2019-02-09T01:25:38.525Z,995.08
2019-02-09T01:26:38.526Z,995.11
2019-02-09T01:27:38.540Z,995.06
2019-02-09T01:28:38.482Z,995.07
2019-02-09T01:29:38.470Z,995.11
2019-02-09T01:30:38.462Z,995.33
2019-02-09T01:31:38.450Z,995.43
2019-02-09T01:32:38.439Z,995.38
2019-02-09T01:33:38.469Z,995.36
2019-02-09T01:34:38.414Z,995.25
2019-02-09T01:35:38.403Z,995.27
2019-02-09T01:36:38.400Z,995.27
2019-02-09T01:37:38.383Z,995.24
2019-02-09T01:38:38.370Z,995.35
2019-02-09T01:39:38.399Z,995.27
2019-02-09T01:40:38.349Z,995.22
2019-02-09T01:41:38.337Z,995.25
2019-02-09T01:42:38.326Z,995.22
2019-02-09T01:43:38.397Z,995.16
2019-02-09T01:44:38.308Z,995.18
2019-02-09T01:45:38.293Z,995.20
2019-02-09T01:46:38.280Z,995.20
2019-02-09T01:47:38.271Z,995.25
2019-02-09T01:48:38.263Z,995.28
2019-02-09T01:49:38.286Z,995.13
2019-02-09T01:50:38.239Z,995.12
2019-02-09T01:51:38.226Z,995.18
2019-02-09T01:52:38.214Z,995.07
2019-02-09T01:53:38.248Z,995.21
2019-02-09T01:54:38.194Z,995.27
2019-02-09T01:55:38.183Z,995.17
2019-02-09T01:56:38.211Z,995.20
2019-02-09T01:57:38.161Z,995.16
2019-02-09T01:58:38.150Z,995.15
2019-02-09T01:59:38.140Z,995.18
2019-02-09T02:00:38.128Z,995.21
2019-02-09T02:01:38.119Z,995.19
2019-02-09T02:02:38.148Z,995.23
2019-02-09T02:03:38.094Z,995.18
2019-02-09T02:04:38.090Z,995.12
2019-02-09T02:05:38.115Z,995.05
2019-02-09T02:06:38.061Z,995.08
2019-02-09T02:07:38.049Z,994.96
2019-02-09T02:08:38.040Z,994.87
2019-02-09T02:09:38.027Z,994.87
2019-02-09T02:10:38.072Z,994.81
2019-02-09T02:11:38.004Z,994.77
2019-02-09T02:12:37.997Z,994.74
2019-02-09T02:13:37.992Z,994.66
2019-02-09T02:14:37.972Z,994.70
2019-02-09T02:15:37.961Z,994.63
2019-02-09T02:16:37.996Z,994.74
2019-02-09T02:17:37.941Z,994.71
2019-02-09T02:18:37.929Z,994.64
2019-02-09T02:19:37.955Z,994.67
2019-02-09T02:20:37.915Z,994.68
2019-02-09T02:21:37.939Z,994.67
2019-02-09T02:22:37.885Z,994.67
2019-02-09T02:23:37.914Z,994.68
2019-02-09T02:24:37.864Z,994.62
2019-02-09T02:25:37.854Z,994.63
2019-02-09T02:26:37.846Z,994.66
2019-02-09T02:27:37.832Z,994.68
2019-02-09T02:28:37.828Z,994.67
2019-02-09T02:29:37.851Z,994.80
2019-02-09T02:30:37.808Z,994.73
2019-02-09T02:31:37.786Z,994.74
2019-02-09T02:32:37.778Z,994.75
2019-02-09T02:33:37.765Z,994.82
2019-02-09T02:34:37.797Z,994.77
2019-02-09T02:35:37.773Z,994.87
2019-02-09T02:36:37.749Z,994.86
2019-02-09T02:37:37.723Z,994.92
2019-02-09T02:38:37.710Z,994.83
2019-02-09T02:39:37.699Z,994.83
2019-02-09T02:40:37.725Z,994.88
2019-02-09T02:41:37.676Z,994.77
2019-02-09T02:42:37.666Z,994.70
2019-02-09T02:43:37.658Z,994.84
2019-02-09T02:44:37.687Z,994.87
2019-02-09T02:45:37.637Z,994.84
2019-02-09T02:46:37.628Z,994.83
2019-02-09T02:47:37.653Z,995.06
2019-02-09T02:48:37.600Z,995.00
2019-02-09T02:49:37.588Z,995.10
2019-02-09T02:50:37.620Z,995.20
2019-02-09T02:51:37.568Z,995.15
2019-02-09T02:52:37.558Z,995.24
2019-02-09T02:53:37.548Z,995.24
2019-02-09T02:54:37.535Z,995.33
2019-02-09T02:55:37.565Z,995.35
2019-02-09T02:56:37.512Z,995.40
2019-02-09T02:57:37.541Z,995.34
2019-02-09T02:58:37.494Z,995.43
2019-02-09T02:59:37.478Z,995.39
2019-02-09T03:00:37.466Z,995.39
2019-02-09T03:01:37.458Z,995.51
2019-02-09T03:02:37.447Z,995.64
2019-02-09T03:03:37.476Z,995.76
2019-02-09T03:04:37.462Z,995.75
2019-02-09T03:05:37.415Z,995.68
2019-02-09T03:06:37.477Z,995.59
2019-02-09T03:07:37.423Z,995.63
2019-02-09T03:08:37.380Z,995.60
2019-02-09T03:09:37.369Z,995.51
2019-02-09T03:10:37.363Z,995.55
2019-02-09T03:11:37.346Z,995.66
2019-02-09T03:12:37.383Z,995.69
2019-02-09T03:13:37.331Z,995.59
2019-02-09T03:14:37.322Z,995.31
2019-02-09T03:15:37.337Z,995.30
2019-02-09T03:16:37.292Z,995.36
2019-02-09T03:17:37.282Z,995.21
2019-02-09T03:18:37.313Z,995.06
2019-02-09T03:19:37.265Z,995.01
2019-02-09T03:20:37.257Z,995.03
2019-02-09T03:21:37.304Z,995.08
2019-02-09T03:22:37.230Z,995.20
2019-02-09T03:23:37.214Z,995.21
2019-02-09T03:24:37.250Z,995.14
2019-02-09T03:25:37.200Z,995.23
2019-02-09T03:26:37.266Z,995.28
2019-02-09T03:27:37.184Z,995.23
2019-02-09T03:28:37.177Z,995.27
2019-02-09T03:29:37.199Z,995.27
2019-02-09T03:30:46.883Z,995.23
2019-02-09T03:31:38.138Z,995.28
2019-02-09T03:32:37.133Z,995.29
2019-02-09T03:33:37.111Z,995.27
2019-02-09T03:34:37.099Z,995.14
2019-02-09T03:35:37.127Z,995.15
2019-02-09T03:36:37.084Z,995.16
2019-02-09T03:37:37.066Z,995.27
2019-02-09T03:38:37.056Z,995.34
2019-02-09T03:39:37.045Z,995.42
2019-02-09T03:40:37.077Z,995.42
2019-02-09T03:41:37.021Z,995.49
2019-02-09T03:42:37.020Z,995.51
2019-02-09T03:43:37.047Z,995.48
2019-02-09T03:44:36.990Z,995.53
2019-02-09T03:45:36.980Z,995.55
2019-02-09T03:46:36.970Z,995.48
2019-02-09T03:47:36.956Z,995.62
2019-02-09T03:48:36.956Z,995.53
2019-02-09T03:49:36.975Z,995.56
2019-02-09T03:50:36.927Z,995.52
2019-02-09T03:51:36.915Z,995.55
2019-02-09T03:52:36.905Z,995.60
2019-02-09T03:53:36.896Z,995.53
2019-02-09T03:54:36.922Z,995.56
2019-02-09T03:55:36.904Z,995.66
2019-02-09T03:56:36.904Z,995.71
2019-02-09T03:57:36.849Z,995.77
2019-02-09T03:58:36.838Z,995.80
2019-02-09T03:59:36.829Z,995.85
2019-02-09T04:00:36.820Z,995.84
2019-02-09T04:01:36.809Z,995.89
2019-02-09T04:02:36.850Z,995.86
2019-02-09T04:03:36.789Z,995.87
2019-02-09T04:04:36.772Z,995.90
2019-02-09T04:05:36.768Z,995.86
2019-02-09T04:06:36.752Z,995.85
2019-02-09T04:07:36.741Z,995.94
2019-02-09T04:08:36.784Z,995.86
2019-02-09T04:09:36.718Z,995.87
2019-02-09T04:10:36.709Z,995.91
2019-02-09T04:11:36.715Z,995.86
2019-02-09T04:12:36.688Z,995.83
2019-02-09T04:13:36.676Z,995.84
2019-02-09T04:14:36.710Z,995.88
2019-02-09T04:15:36.654Z,995.80
2019-02-09T04:16:36.645Z,995.78
2019-02-09T04:17:36.636Z,995.81
2019-02-09T04:18:36.623Z,995.80
2019-02-09T04:19:36.610Z,995.81
2019-02-09T04:20:36.646Z,995.89
2019-02-09T04:21:36.590Z,995.86
2019-02-09T04:22:36.580Z,995.92
2019-02-09T04:23:36.565Z,995.91
2019-02-09T04:24:36.562Z,995.91
2019-02-09T04:25:36.544Z,995.94
2019-02-09T04:26:36.583Z,996.03
2019-02-09T04:27:36.523Z,996.08
2019-02-09T04:28:36.519Z,996.06
2019-02-09T04:29:36.501Z,996.05
2019-02-09T04:30:36.490Z,996.06
2019-02-09T04:31:36.480Z,996.08
2019-02-09T04:32:36.514Z,996.07
2019-02-09T04:33:36.458Z,996.10
2019-02-09T04:34:36.454Z,996.09
2019-02-09T04:35:36.479Z,996.04
2019-02-09T04:36:36.427Z,995.96
2019-02-09T04:37:36.416Z,996.02
2019-02-09T04:38:36.401Z,996.07
2019-02-09T04:39:36.446Z,996.09
2019-02-09T04:40:36.391Z,996.17
2019-02-09T04:41:36.373Z,996.18
2019-02-09T04:42:36.361Z,996.17
2019-02-09T04:43:36.349Z,996.20
2019-02-09T04:44:36.381Z,996.22
2019-02-09T04:45:36.335Z,996.25
2019-02-09T04:46:36.318Z,996.25
2019-02-09T04:47:36.308Z,996.29
2019-02-09T04:48:36.343Z,996.34
2019-02-09T04:49:36.293Z,996.30
2019-02-09T04:50:36.277Z,996.31
2019-02-09T04:51:36.267Z,996.30
2019-02-09T04:52:36.253Z,996.32
2019-02-09T04:53:36.310Z,996.31
2019-02-09T04:54:36.231Z,996.46
2019-02-09T04:55:36.217Z,996.50
2019-02-09T04:56:36.213Z,996.47
2019-02-09T04:57:36.198Z,996.55
2019-02-09T04:58:36.229Z,996.63
2019-02-09T04:59:36.174Z,996.44
2019-02-09T05:00:36.166Z,996.59
2019-02-09T05:01:36.152Z,996.69
2019-02-09T05:02:36.148Z,996.61
2019-02-09T05:03:36.133Z,996.60
2019-02-09T05:04:36.163Z,996.60
2019-02-09T05:05:36.110Z,996.65
2019-02-09T05:06:36.103Z,996.72
2019-02-09T05:07:36.128Z,996.66
2019-02-09T05:08:36.082Z,996.72
2019-02-09T05:09:36.065Z,996.76
2019-02-09T05:10:36.097Z,996.79
2019-02-09T05:11:36.061Z,996.86
2019-02-09T05:12:36.034Z,996.91
2019-02-09T05:13:36.028Z,996.85
2019-02-09T05:14:36.016Z,996.96
2019-02-09T05:15:36.002Z,996.94
2019-02-09T05:16:36.041Z,996.99
2019-02-09T05:17:35.978Z,997.01
2019-02-09T05:18:35.966Z,997.00
2019-02-09T05:19:35.960Z,997.03
2019-02-09T05:20:35.949Z,997.04
2019-02-09T05:21:35.937Z,997.04
2019-02-09T05:22:35.972Z,997.06
2019-02-09T05:23:35.913Z,997.15
2019-02-09T05:24:35.903Z,997.13
2019-02-09T05:25:35.931Z,997.17
2019-02-09T05:26:35.884Z,997.07
2019-02-09T05:27:35.870Z,997.10
2019-02-09T05:28:35.918Z,997.07
2019-02-09T05:29:35.851Z,997.04
2019-02-09T05:30:35.836Z,996.99
2019-02-09T05:31:35.833Z,997.08
2019-02-09T05:32:35.817Z,997.03
2019-02-09T05:33:35.849Z,997.01
2019-02-09T05:34:35.834Z,997.11
2019-02-09T05:35:35.828Z,997.09
2019-02-09T05:36:35.773Z,997.05
2019-02-09T05:37:35.804Z,997.02
2019-02-09T05:38:35.770Z,997.05
2019-02-09T05:39:35.741Z,997.06
2019-02-09T05:40:35.729Z,996.96
2019-02-09T05:41:35.719Z,997.05
2019-02-09T05:42:35.713Z,997.04
2019-02-09T05:43:35.748Z,997.01
2019-02-09T05:44:35.685Z,997.01
2019-02-09T05:45:35.676Z,997.09
2019-02-09T05:46:35.663Z,997.18
2019-02-09T05:47:35.652Z,997.16
2019-02-09T05:48:35.666Z,997.05
2019-02-09T05:49:35.681Z,997.05
2019-02-09T05:50:35.622Z,997.16
2019-02-09T05:51:35.610Z,997.12
2019-02-09T05:52:35.644Z,997.17
2019-02-09T05:53:35.587Z,997.18
2019-02-09T05:54:35.629Z,997.23
2019-02-09T05:55:35.583Z,997.25
2019-02-09T05:56:35.600Z,997.37
2019-02-09T05:57:35.544Z,997.35
2019-02-09T05:58:35.532Z,997.29
2019-02-09T05:59:35.527Z,997.36
2019-02-09T06:00:35.514Z,997.32
2019-02-09T06:01:35.505Z,997.35
2019-02-09T06:02:35.540Z,997.39
2019-02-09T06:03:35.486Z,997.40
2019-02-09T06:04:35.476Z,997.42
2019-02-09T06:05:35.477Z,997.46
2019-02-09T06:06:35.493Z,997.51
2019-02-09T06:07:35.436Z,997.53
2019-02-09T06:08:35.429Z,997.50
2019-02-09T06:09:35.413Z,997.56
2019-02-09T06:10:35.407Z,997.49
2019-02-09T06:11:35.398Z,997.47
2019-02-09T06:12:35.426Z,997.43
2019-02-09T06:13:35.394Z,997.45
2019-02-09T06:14:35.406Z,997.45
2019-02-09T06:15:35.353Z,997.41
2019-02-09T06:16:35.340Z,997.42
2019-02-09T06:17:35.342Z,997.42
2019-02-09T06:18:35.327Z,997.52
2019-02-09T06:19:35.307Z,997.52
2019-02-09T06:20:35.341Z,997.59
2019-02-09T06:21:35.284Z,997.61
2019-02-09T06:22:35.277Z,997.60
2019-02-09T06:23:35.262Z,997.60
2019-02-09T06:24:35.256Z,997.56
2019-02-09T06:25:35.242Z,997.57
2019-02-09T06:26:35.346Z,997.59
2019-02-09T06:27:35.232Z,997.58
2019-02-09T06:28:35.212Z,997.66
2019-02-09T06:29:35.216Z,997.60
2019-02-09T06:30:35.189Z,997.67
2019-02-09T06:31:40.665Z,997.72
2019-02-09T06:32:36.207Z,997.70
2019-02-09T06:33:35.156Z,997.77
2019-02-09T06:34:35.147Z,997.77
2019-02-09T06:35:35.140Z,997.79
2019-02-09T06:36:35.152Z,997.92
2019-02-09T06:37:35.131Z,997.94
2019-02-09T06:38:35.157Z,998.01
2019-02-09T06:39:35.095Z,998.00
2019-02-09T06:40:35.084Z,997.99
2019-02-09T06:41:35.071Z,997.98
2019-02-09T06:42:35.103Z,998.01
2019-02-09T06:43:35.050Z,998.07
2019-02-09T06:44:35.040Z,998.07
2019-02-09T06:45:35.029Z,998.17
2019-02-09T06:46:35.021Z,998.16
2019-02-09T06:47:35.010Z,998.13
2019-02-09T06:48:35.055Z,998.09
2019-02-09T06:49:34.986Z,998.15
2019-02-09T06:50:34.977Z,998.13
2019-02-09T06:51:34.969Z,998.14
2019-02-09T06:52:34.949Z,998.12
2019-02-09T06:53:34.987Z,998.07
2019-02-09T06:54:34.937Z,998.16
2019-02-09T06:55:34.967Z,998.19
2019-02-09T06:56:34.907Z,998.13
2019-02-09T06:57:34.946Z,998.22
2019-02-09T06:58:34.893Z,998.22
2019-02-09T06:59:34.881Z,998.16
2019-02-09T07:00:34.868Z,998.22
2019-02-09T07:01:34.905Z,998.31
2019-02-09T07:02:34.847Z,998.30
2019-02-09T07:03:34.873Z,998.36
2019-02-09T07:04:34.822Z,998.36
2019-02-09T07:05:34.812Z,998.39
2019-02-09T07:06:34.800Z,998.44
2019-02-09T07:07:34.788Z,998.46
2019-02-09T07:08:34.826Z,998.49
2019-02-09T07:09:34.779Z,998.52
2019-02-09T07:10:34.755Z,998.48
2019-02-09T07:11:34.743Z,998.46
2019-02-09T07:12:34.735Z,998.45
2019-02-09T07:13:34.725Z,998.51
2019-02-09T07:14:34.757Z,998.48
2019-02-09T07:15:34.712Z,998.53
2019-02-09T07:16:34.690Z,998.51
2019-02-09T07:17:34.704Z,998.57
2019-02-09T07:18:34.673Z,998.62
2019-02-09T07:19:34.660Z,998.65
2019-02-09T07:20:34.693Z,998.60
2019-02-09T07:21:34.637Z,998.65
2019-02-09T07:22:34.635Z,998.66
2019-02-09T07:23:34.615Z,998.67
2019-02-09T07:24:34.603Z,998.66
2019-02-09T07:25:34.592Z,998.69
2019-02-09T07:26:34.631Z,998.70
2019-02-09T07:27:34.571Z,998.61
2019-02-09T07:28:34.571Z,998.66
2019-02-09T07:29:34.558Z,998.67
2019-02-09T07:30:34.538Z,998.63
2019-02-09T07:31:34.572Z,998.67
2019-02-09T07:32:34.522Z,998.62
2019-02-09T07:33:34.512Z,998.68
2019-02-09T07:34:34.521Z,998.67
2019-02-09T07:35:34.487Z,998.59
2019-02-09T07:36:34.515Z,998.67
2019-02-09T07:37:34.468Z,998.68
2019-02-09T07:38:34.461Z,998.66
2019-02-09T07:39:34.442Z,998.72
2019-02-09T07:40:34.437Z,998.75
2019-02-09T07:41:34.468Z,998.77
2019-02-09T07:42:34.413Z,998.77
2019-02-09T07:43:34.397Z,998.71
2019-02-09T07:44:34.389Z,998.79
2019-02-09T07:45:34.384Z,998.86
2019-02-09T07:46:34.368Z,998.86
2019-02-09T07:47:34.404Z,998.93
2019-02-09T07:48:34.397Z,998.94
2019-02-09T07:49:34.377Z,998.95
2019-02-09T07:50:34.327Z,998.96
2019-02-09T07:51:34.329Z,998.99
2019-02-09T07:52:34.306Z,999.04
2019-02-09T07:53:34.337Z,999.04
2019-02-09T07:54:34.347Z,999.00
2019-02-09T07:55:34.274Z,999.10
2019-02-09T07:56:34.263Z,999.07
2019-02-09T07:57:34.258Z,999.10
2019-02-09T07:58:34.241Z,999.10
2019-02-09T07:59:34.233Z,999.11
2019-02-09T08:00:34.258Z,999.16
2019-02-09T08:01:34.208Z,999.19
2019-02-09T08:02:34.196Z,999.21
2019-02-09T08:03:34.186Z,999.14
2019-02-09T08:04:34.218Z,999.18
2019-02-09T08:05:34.171Z,999.10
2019-02-09T08:06:34.154Z,999.19
2019-02-09T08:07:34.183Z,999.15
2019-02-09T08:08:34.186Z,999.16
2019-02-09T08:09:34.123Z,999.21
2019-02-09T08:10:34.113Z,999.27
2019-02-09T08:11:34.098Z,999.28
2019-02-09T08:12:34.089Z,999.24
2019-02-09T08:13:34.094Z,999.32
2019-02-09T08:14:34.110Z,999.30
2019-02-09T08:15:34.059Z,999.30
2019-02-09T08:16:34.046Z,999.31
2019-02-09T08:17:34.043Z,999.42
2019-02-09T08:18:34.028Z,999.15
2019-02-09T08:19:34.019Z,999.38
2019-02-09T08:20:34.047Z,999.47
2019-02-09T08:21:33.989Z,999.31
2019-02-09T08:22:33.995Z,999.47
2019-02-09T08:23:33.974Z,999.64
2019-02-09T08:24:33.958Z,999.47
2019-02-09T08:25:33.945Z,999.47
2019-02-09T08:26:33.980Z,999.36
2019-02-09T08:27:33.930Z,999.43
2019-02-09T08:28:33.928Z,999.51
2019-02-09T08:29:33.905Z,999.42
2019-02-09T08:30:33.891Z,999.40
2019-02-09T08:31:33.896Z,999.50
2019-02-09T08:32:33.918Z,999.53
2019-02-09T08:33:33.865Z,999.35
2019-02-09T08:34:33.851Z,999.61
2019-02-09T08:35:33.838Z,999.46
2019-02-09T08:36:33.826Z,999.39
2019-02-09T08:37:33.816Z,999.56
2019-02-09T08:38:33.864Z,999.55
2019-02-09T08:39:33.793Z,999.55
2019-02-09T08:40:33.783Z,999.49
2019-02-09T08:41:33.788Z,999.55
2019-02-09T08:42:33.762Z,999.54
2019-02-09T08:43:33.773Z,999.65
2019-02-09T08:44:33.807Z,999.63
2019-02-09T08:45:33.739Z,999.48
2019-02-09T08:46:33.726Z,999.70
2019-02-09T08:47:33.723Z,999.64
2019-02-09T08:48:33.714Z,999.57
2019-02-09T08:49:33.691Z,999.58
2019-02-09T08:50:33.730Z,999.77
2019-02-09T08:51:33.668Z,999.65
2019-02-09T08:52:33.663Z,999.71
2019-02-09T08:53:33.646Z,999.81
2019-02-09T08:54:33.629Z,999.62
2019-02-09T08:55:33.624Z,999.60
2019-02-09T08:56:33.649Z,999.66
2019-02-09T08:57:33.643Z,999.83
2019-02-09T08:58:33.599Z,999.78
2019-02-09T08:59:33.580Z,999.88
2019-02-09T09:00:33.569Z,999.83
2019-02-09T09:01:33.560Z,999.78
2019-02-09T09:02:33.589Z,999.72
2019-02-09T09:03:33.531Z,999.59
2019-02-09T09:04:33.522Z,999.87
2019-02-09T09:05:33.532Z,999.76
2019-02-09T09:06:33.499Z,999.73
2019-02-09T09:07:33.532Z,999.78
2019-02-09T09:08:33.478Z,999.79
2019-02-09T09:09:33.482Z,999.80
2019-02-09T09:10:33.471Z,999.91
2019-02-09T09:11:33.501Z,999.88
2019-02-09T09:12:33.819Z,999.79
2019-02-09T09:13:33.424Z,999.89
2019-02-09T09:14:33.414Z,999.84
2019-02-09T09:15:33.410Z,999.76
2019-02-09T09:16:33.394Z,999.84
2019-02-09T09:17:33.427Z,999.72
2019-02-09T09:18:33.432Z,999.87
2019-02-09T09:19:33.359Z,999.90
2019-02-09T09:20:33.348Z,999.84
2019-02-09T09:21:33.337Z,999.93
2019-02-09T09:22:33.322Z,999.80
2019-02-09T09:23:33.319Z,999.87
2019-02-09T09:24:33.344Z,999.90
2019-02-09T09:25:33.299Z,1000.01
2019-02-09T09:26:33.280Z,999.77
2019-02-09T09:27:33.291Z,999.87
2019-02-09T09:28:33.264Z,999.88
2019-02-09T09:29:33.246Z,999.90
2019-02-09T09:30:33.290Z,999.88
2019-02-09T09:31:33.224Z,999.88
2019-02-09T09:32:33.260Z,999.69
2019-02-09T09:33:33.206Z,999.90
2019-02-09T09:34:33.191Z,999.89
2019-02-09T09:35:33.189Z,999.99
2019-02-09T09:36:33.170Z,1000.02
2019-02-09T09:37:33.220Z,1000.05
2019-02-09T09:38:33.155Z,999.94
2019-02-09T09:39:33.159Z,1000.07
2019-02-09T09:40:33.129Z,1000.20
2019-02-09T09:41:33.179Z,1000.19
2019-02-09T09:42:33.117Z,1000.18
2019-02-09T09:43:34.087Z,1000.16
2019-02-09T09:44:33.087Z,1000.14
2019-02-09T09:45:33.071Z,1000.01
2019-02-09T09:46:33.058Z,1000.15
2019-02-09T09:47:33.104Z,1000.17
2019-02-09T09:48:33.050Z,999.95
2019-02-09T09:49:33.041Z,1000.11
2019-02-09T09:50:33.017Z,1000.01
2019-02-09T09:51:33.017Z,1000.02
2019-02-09T09:52:32.991Z,1000.06
2019-02-09T09:53:33.050Z,999.96
2019-02-09T09:54:32.976Z,1000.02
2019-02-09T09:55:32.958Z,999.93
2019-02-09T09:56:32.955Z,1000.08
2019-02-09T09:57:32.938Z,999.97
2019-02-09T09:58:32.934Z,1000.07
2019-02-09T09:59:32.970Z,1000.01
2019-02-09T10:00:32.906Z,1000.12
2019-02-09T10:01:32.929Z,999.96
2019-02-09T10:02:36.581Z,1000.23
2019-02-09T10:03:32.872Z,999.99
2019-02-09T10:04:32.906Z,1000.28
2019-02-09T10:05:32.862Z,1000.07
2019-02-09T10:06:32.890Z,1000.10
2019-02-09T10:07:32.832Z,1000.12
2019-02-09T10:08:32.820Z,1000.30
2019-02-09T10:09:32.815Z,1000.20
2019-02-09T10:10:32.837Z,1000.21
2019-02-09T10:11:32.784Z,1000.35
2019-02-09T10:12:32.773Z,1000.32
2019-02-09T10:13:32.761Z,1000.12
2019-02-09T10:14:32.745Z,999.87
2019-02-09T10:15:32.739Z,1000.30
2019-02-09T10:16:32.780Z,1000.23
2019-02-09T10:17:32.719Z,1000.32
2019-02-09T10:18:32.704Z,1000.42
2019-02-09T10:19:32.694Z,1000.20
2019-02-09T10:20:32.698Z,1000.22
2019-02-09T10:21:32.670Z,1000.44
2019-02-09T10:22:32.714Z,1000.36
2019-02-09T10:23:32.700Z,1000.28
2019-02-09T10:24:32.648Z,1000.17
2019-02-09T10:25:32.631Z,1000.34
2019-02-09T10:26:32.625Z,1000.02
2019-02-09T10:27:32.610Z,1000.26
2019-02-09T10:28:32.595Z,1000.39
2019-02-09T10:29:32.627Z,1000.30
2019-02-09T10:30:32.585Z,1000.08
2019-02-09T10:31:32.779Z,1000.25
2019-02-09T10:32:32.549Z,1000.54
2019-02-09T10:33:32.535Z,1000.39
2019-02-09T10:34:32.584Z,1000.37
2019-02-09T10:35:32.549Z,1000.16
2019-02-09T10:36:32.506Z,1000.33
2019-02-09T10:37:32.504Z,1000.35
2019-02-09T10:38:32.482Z,1000.38
2019-02-09T10:39:32.522Z,1000.42
2019-02-09T10:40:32.481Z,1000.37
2019-02-09T10:41:32.445Z,1000.54
2019-02-09T10:42:32.439Z,1000.40
2019-02-09T10:43:32.425Z,1000.51
2019-02-09T10:44:32.456Z,1000.53
2019-02-09T10:45:32.403Z,999.79
2019-02-09T10:46:32.392Z,1000.42
2019-02-09T10:47:32.432Z,1000.37
2019-02-09T10:48:32.372Z,1000.47
2019-02-09T10:49:32.362Z,1000.70
2019-02-09T10:50:32.386Z,1000.60
2019-02-09T10:51:32.335Z,1000.51
2019-02-09T10:52:32.324Z,1000.93
2019-02-09T10:53:32.317Z,1000.55
2019-02-09T10:54:32.313Z,1000.60
2019-02-09T10:55:32.296Z,1000.58
2019-02-09T10:56:32.326Z,1000.54
2019-02-09T10:57:32.273Z,1000.60
2019-02-09T10:58:32.270Z,1000.70
2019-02-09T10:59:32.253Z,1000.53
2019-02-09T11:00:32.251Z,1000.45
2019-02-09T11:01:32.226Z,1000.71
2019-02-09T11:02:32.259Z,1000.73
2019-02-09T11:03:32.211Z,1000.48
2019-02-09T11:04:32.248Z,1000.55
2019-02-09T11:05:32.184Z,1000.59
2019-02-09T11:06:32.166Z,1000.68
2019-02-09T11:07:32.161Z,1000.70
2019-02-09T11:08:32.158Z,1000.59
2019-02-09T11:09:32.155Z,1000.50
2019-02-09T11:10:32.170Z,1000.44
2019-02-09T11:11:32.116Z,1000.58
2019-02-09T11:12:32.111Z,1000.73
2019-02-09T11:13:32.110Z,1000.69
2019-02-09T11:14:32.087Z,1000.40
2019-02-09T11:15:32.074Z,1000.66
2019-02-09T11:16:32.109Z,1000.59
2019-02-09T11:17:32.094Z,1000.42
2019-02-09T11:18:32.043Z,1000.70
2019-02-09T11:19:32.027Z,1000.49
2019-02-09T11:20:32.015Z,1000.58
2019-02-09T11:21:32.003Z,1000.35
2019-02-09T11:22:32.038Z,1000.66
2019-02-09T11:23:31.979Z,1000.72
2019-02-09T11:24:31.972Z,1000.56
2019-02-09T11:25:31.958Z,1000.54
2019-02-09T11:26:31.954Z,1000.44
2019-02-09T11:27:31.978Z,1000.56
2019-02-09T11:28:31.966Z,1000.51
2019-02-09T11:29:31.914Z,1000.65
2019-02-09T11:30:31.912Z,1000.57
2019-02-09T11:31:31.894Z,1000.57
2019-02-09T11:32:31.903Z,1000.57
2019-02-09T11:33:31.888Z,1000.46
2019-02-09T11:34:31.902Z,1000.59
2019-02-09T11:35:32.364Z,1000.57
2019-02-09T11:36:31.835Z,1000.54
2019-02-09T11:37:31.828Z,1000.57
2019-02-09T11:38:31.813Z,1000.47
2019-02-09T11:39:31.802Z,1000.49
2019-02-09T11:40:31.850Z,1000.38
2019-02-09T11:41:31.792Z,1000.45
2019-02-09T11:42:32.116Z,1000.44
2019-02-09T11:43:31.759Z,1000.38
2019-02-09T11:44:31.766Z,1000.29
2019-02-09T11:45:31.747Z,1000.11
2019-02-09T11:46:31.781Z,1000.39
2019-02-09T11:47:31.731Z,1000.15
2019-02-09T11:48:31.704Z,1000.16
2019-02-09T11:49:31.691Z,1000.20
2019-02-09T11:50:31.687Z,1000.07
2019-02-09T11:51:31.672Z,1000.57
2019-02-09T11:52:31.701Z,1000.18
2019-02-09T11:53:31.648Z,1000.58
2019-02-09T11:54:31.639Z,1000.18
2019-02-09T11:55:31.628Z,1000.35
2019-02-09T11:56:31.617Z,1000.42
2019-02-09T11:57:31.604Z,1000.33
2019-02-09T11:58:31.635Z,1000.36
2019-02-09T11:59:31.584Z,1000.43
2019-02-09T12:00:31.569Z,1000.18
2019-02-09T12:01:31.563Z,1000.37
2019-02-09T12:02:31.590Z,1000.34
2019-02-09T12:03:31.540Z,1000.35
2019-02-09T12:04:31.524Z,1000.29
2019-02-09T12:05:31.522Z,1000.13
2019-02-09T12:06:31.513Z,1000.27
2019-02-09T12:07:31.551Z,1000.02
2019-02-09T12:08:31.505Z,1000.18
2019-02-09T12:09:31.471Z,1000.25
2019-02-09T12:10:31.467Z,1000.12
2019-02-09T12:11:31.452Z,1000.28
2019-02-09T12:12:32.534Z,1000.19
2019-02-09T12:13:31.485Z,1000.33
2019-02-09T12:14:31.414Z,1000.25
2019-02-09T12:15:31.405Z,1000.23
2019-02-09T12:16:31.392Z,1000.10
2019-02-09T12:17:31.430Z,999.98
2019-02-09T12:18:31.375Z,999.95
2019-02-09T12:19:31.360Z,999.91
2019-02-09T12:20:31.357Z,1000.15
2019-02-09T12:21:31.340Z,1000.18
2019-02-09T12:22:31.328Z,1000.19
2019-02-09T12:23:31.361Z,1000.06